Time;durP1;ratioP1;P1;durP2;ratioP2;P2;SDS_P1;SDS_P2;PMS_P1;PMS_P2;Temp;Humidity;BMP_temperature;BMP_pressure;BME280_temperature;BME280_humidity;BME280_pressure;Samples;Min_cycle;Max_cycle;Signal;HPM_P1;HPM_P2
2022/01/28 00:01:40;;;;;;;9.83;7.47;;;8.00;81.20;8.00;97177.00;;;;5053266;28;20235;-86
2022/01/28 00:04:14;;;;;;;9.27;6.60;;;8.00;81.10;8.00;97181.00;;;;5052003;28;20242;-86
2022/01/28 00:06:42;;;;;;;9.33;6.90;;;8.10;81.20;8.10;97185.00;;;;5046510;28;20689;-86
2022/01/28 00:09:09;;;;;;;8.97;6.70;;;8.10;81.00;8.10;97180.00;;;;5055278;28;20217;-86
2022/01/28 00:11:36;;;;;;;8.57;6.63;;;8.10;81.00;8.10;97177.00;;;;5050940;28;20204;-85
2022/01/28 00:14:14;;;;;;;7.60;6.63;;;8.10;80.90;8.10;97189.00;;;;5052221;28;20283;-86
2022/01/28 00:17:10;;;;;;;9.20;6.27;;;8.20;80.90;8.10;97190.00;;;;5034496;28;20212;-85
2022/01/28 00:36:48;;;;;;;7.77;6.17;;;8.20;80.90;8.10;97203.00;;;;5043224;28;20211;-85
2022/01/28 00:39:16;;;;;;;8.80;6.83;;;8.30;81.00;8.10;97201.00;;;;5052313;28;20181;-85
2022/01/28 00:41:50;;;;;;;7.53;6.17;;;8.20;80.80;8.10;97206.00;;;;5012842;28;20296;-85
2022/01/28 00:44:22;;;;;;;7.17;6.27;;;8.20;80.70;8.10;97202.00;;;;5020089;28;20212;-86
2022/01/28 00:46:54;;;;;;;7.03;6.00;;;8.30;80.80;8.10;97201.00;;;;5031513;28;20185;-85
2022/01/28 00:49:29;;;;;;;7.73;5.93;;;8.20;80.60;8.10;97202.00;;;;5032185;28;20221;-85
2022/01/28 00:52:03;;;;;;;6.00;5.40;;;8.20;80.70;8.10;97215.00;;;;5048157;28;20584;-85
2022/01/28 00:54:41;;;;;;;7.60;6.40;;;8.20;80.90;8.10;97216.00;;;;5031572;28;20213;-85
2022/01/28 00:57:12;;;;;;;5.37;4.80;;;8.20;81.00;8.10;97210.00;;;;5031905;28;20534;-85
2022/01/28 00:59:44;;;;;;;6.57;5.87;;;8.10;80.90;8.10;97201.00;;;;5013134;28;20272;-85
2022/01/28 01:02:19;;;;;;;6.73;5.37;;;8.20;81.00;8.00;97215.00;;;;5012702;28;20220;-86
2022/01/28 01:04:51;;;;;;;5.90;5.13;;;8.10;81.10;8.00;97236.00;;;;5017455;28;20217;-86
2022/01/28 01:07:21;;;;;;;6.03;5.30;;;8.20;81.10;8.00;97243.00;;;;5049567;28;20212;-85
2022/01/28 01:09:54;;;;;;;5.30;4.70;;;8.20;81.10;8.00;97252.00;;;;5052426;28;20298;-86
2022/01/28 01:12:25;;;;;;;5.40;4.90;;;8.10;80.90;8.00;97244.00;;;;5034296;28;20225;-86
2022/01/28 01:15:01;;;;;;;5.27;4.77;;;8.10;81.00;8.00;97254.00;;;;5032558;28;20221;-85
2022/01/28 01:17:33;;;;;;;5.90;4.80;;;8.10;81.00;7.90;97245.00;;;;5032205;28;20278;-85
2022/01/28 01:20:20;;;;;;;5.40;4.90;;;8.10;81.10;7.90;97259.00;;;;5031881;28;20209;-85
2022/01/28 01:23:06;;;;;;;5.83;4.77;;;8.10;81.10;7.90;97260.00;;;;5012781;28;20233;-85
2022/01/28 01:25:42;;;;;;;5.30;4.43;;;8.10;81.10;7.90;97269.00;;;;5025777;28;20224;-85
2022/01/28 01:28:13;;;;;;;5.17;4.20;;;8.10;81.10;7.90;97277.00;;;;5032164;28;20280;-85
2022/01/28 01:30:44;;;;;;;4.63;4.17;;;8.10;81.80;7.90;97269.00;;;;5031379;28;20240;-85
2022/01/28 01:33:13;;;;;;;5.23;4.40;;;8.10;81.00;7.90;97280.00;;;;5032677;28;20186;-85
2022/01/28 01:35:47;;;;;;;5.53;4.90;;;8.00;81.00;7.90;97272.00;;;;5031317;28;20260;-85
2022/01/28 01:38:25;;;;;;;4.97;4.47;;;8.00;81.10;7.90;97280.00;;;;5016437;28;20209;-86
2022/01/28 01:40:56;;;;;;;4.47;4.07;;;8.00;81.10;7.90;97273.00;;;;5031416;28;20212;-86
2022/01/28 01:43:40;;;;;;;4.67;4.27;;;8.00;81.00;7.90;97277.00;;;;5035153;28;20678;-86
2022/01/28 01:46:25;;;;;;;5.10;4.40;;;8.00;81.10;7.90;97276.00;;;;5034842;28;20193;-85
2022/01/28 01:54:26;;;;;;;6.87;4.80;;;8.00;80.90;7.90;97278.00;;;;5035250;28;20197;-86
2022/01/28 01:56:56;;;;;;;5.77;4.90;;;8.00;80.80;7.90;97264.00;;;;5035403;28;20228;-85
2022/01/28 01:59:23;;;;;;;5.23;4.73;;;8.00;81.00;7.90;97261.00;;;;5015621;28;20206;-85
2022/01/28 02:01:51;;;;;;;4.97;4.33;;;8.00;81.10;7.90;97271.00;;;;5015116;28;20218;-86
2022/01/28 02:04:18;;;;;;;5.13;4.63;;;8.00;80.90;7.90;97273.00;;;;5026689;28;20304;-86
2022/01/28 02:06:47;;;;;;;4.53;3.77;;;8.00;80.90;7.90;97269.00;;;;5028440;28;20661;-86
2022/01/28 02:09:14;;;;;;;5.63;4.67;;;8.00;80.80;7.90;97282.00;;;;5033710;28;20296;-85
2022/01/28 02:11:43;;;;;;;5.30;4.57;;;8.10;81.00;8.00;97278.00;;;;5046076;28;20217;-85
2022/01/28 02:14:16;;;;;;;6.07;4.70;;;8.10;81.00;8.00;97284.00;;;;5038666;28;20813;-86
2022/01/28 02:16:49;;;;;;;5.43;4.67;;;8.10;80.80;8.00;97285.00;;;;5033908;28;20190;-86
2022/01/28 02:19:23;;;;;;;5.03;4.53;;;8.10;80.80;7.90;97291.00;;;;5033982;28;20200;-85
2022/01/28 02:21:54;;;;;;;5.47;4.93;;;8.10;80.50;7.90;97298.00;;;;5049210;28;20224;-85
2022/01/28 02:24:27;;;;;;;4.73;4.10;;;8.00;80.50;7.90;97297.00;;;;5040704;28;20241;-86
2022/01/28 02:27:05;;;;;;;5.30;4.60;;;8.10;80.80;7.90;97293.00;;;;5034634;28;20217;-85
2022/01/28 02:29:35;;;;;;;5.67;4.23;;;8.10;80.70;7.90;97302.00;;;;5034031;28;20709;-86
2022/01/28 02:32:08;;;;;;;4.40;4.00;;;8.00;80.10;7.90;97311.00;;;;5034404;28;20781;-85
2022/01/28 02:34:37;;;;;;;4.90;4.00;;;8.00;80.50;7.90;97310.00;;;;5034216;28;20192;-85
2022/01/28 02:37:14;;;;;;;5.17;4.47;;;8.10;80.40;7.90;97313.00;;;;5048529;28;20192;-85
2022/01/28 02:39:43;;;;;;;5.60;4.40;;;8.00;80.30;7.90;97320.00;;;;5037475;28;20216;-85
2022/01/28 02:42:19;;;;;;;4.20;3.80;;;8.00;80.50;7.90;97318.00;;;;5021639;28;20213;-85
2022/01/28 02:44:49;;;;;;;4.63;4.00;;;8.00;80.50;7.90;97328.00;;;;5032277;28;20216;-85
2022/01/28 02:47:28;;;;;;;4.73;4.30;;;8.00;80.50;7.90;97323.00;;;;5033986;28;20699;-85
2022/01/28 02:49:55;;;;;;;3.97;3.50;;;8.00;80.60;8.00;97325.00;;;;5034165;28;20688;-85
2022/01/28 02:52:34;;;;;;;4.67;4.27;;;8.00;80.50;8.00;97312.00;;;;5034090;28;20304;-85
2022/01/28 02:55:07;;;;;;;4.47;3.97;;;8.10;80.20;8.00;97310.00;;;;5033960;28;20584;-86
2022/01/28 02:57:39;;;;;;;5.13;4.07;;;8.10;80.40;8.00;97314.00;;;;5033957;28;20280;-85
2022/01/28 03:00:08;;;;;;;4.87;3.90;;;8.10;80.10;8.00;97313.00;;;;5033698;28;20209;-85
2022/01/28 03:02:40;;;;;;;4.20;3.80;;;8.00;80.00;7.90;97322.00;;;;5033752;28;20317;-86
2022/01/28 03:05:30;;;;;;;4.20;3.80;;;8.00;80.20;7.90;97323.00;;;;5033485;28;20248;-83
2022/01/28 03:08:03;;;;;;;3.97;3.57;;;8.00;80.20;7.90;97325.00;;;;5014177;28;20194;-85
2022/01/28 03:10:40;;;;;;;4.27;3.97;;;8.00;80.30;7.90;97328.00;;;;5034290;28;20287;-86
2022/01/28 03:16:07;;;;;;;4.70;3.93;;;8.00;80.00;7.90;97331.00;;;;5053349;28;20192;-86
2022/01/28 03:18:49;;;;;;;4.77;4.37;;;8.10;80.40;8.00;97334.00;;;;5013843;28;20204;-85
2022/01/28 03:21:37;;;;;;;4.33;3.93;;;8.10;80.30;8.00;97335.00;;;;5013699;28;20284;-85
2022/01/28 03:24:09;;;;;;;4.33;3.73;;;8.10;80.20;8.00;97327.00;;;;5013627;28;20190;-85
2022/01/28 03:26:51;;;;;;;3.53;3.23;;;8.10;80.10;8.00;97348.00;;;;5025059;28;20185;-86
2022/01/28 03:29:19;;;;;;;4.77;3.60;;;8.10;80.10;8.00;97338.00;;;;5033467;28;20205;-85
2022/01/28 03:31:49;;;;;;;3.60;3.30;;;8.10;80.20;8.00;97337.00;;;;5032942;28;20244;-86
2022/01/28 03:34:16;;;;;;;4.33;3.40;;;8.10;80.20;8.10;97343.00;;;;5033129;28;20905;-86
2022/01/28 03:36:51;;;;;;;4.03;3.73;;;8.10;79.90;8.10;97346.00;;;;5032919;28;20666;-85
2022/01/28 03:39:22;;;;;;;4.20;3.40;;;8.10;80.00;8.10;97343.00;;;;5033306;28;20201;-86
2022/01/28 03:41:49;;;;;;;3.63;3.33;;;8.10;79.80;8.10;97342.00;;;;5032912;28;20619;-86
2022/01/28 03:44:19;;;;;;;3.80;3.40;;;8.10;79.60;8.00;97353.00;;;;5032852;28;20280;-85
2022/01/28 03:46:50;;;;;;;3.27;2.97;;;8.10;79.70;8.00;97365.00;;;;5032976;28;20285;-86
2022/01/28 03:49:17;;;;;;;3.63;3.33;;;8.10;79.40;8.00;97363.00;;;;5033429;28;20675;-86
2022/01/28 03:51:44;;;;;;;3.10;2.90;;;8.10;79.80;8.00;97358.00;;;;5032672;28;20217;-85
2022/01/28 03:54:12;;;;;;;3.90;3.57;;;8.10;79.70;8.00;97378.00;;;;5033010;28;20233;-85
2022/01/28 03:56:41;;;;;;;3.80;3.50;;;8.10;79.90;8.00;97384.00;;;;5022920;28;20210;-85
2022/01/28 03:59:08;;;;;;;4.13;3.70;;;8.10;79.90;8.00;97371.00;;;;5032933;28;20201;-85
2022/01/28 04:01:38;;;;;;;4.30;3.90;;;8.10;79.80;8.00;97378.00;;;;5032616;28;20244;-85
2022/01/28 04:12:34;;;;;;;3.90;3.50;;;8.10;79.40;8.00;97382.00;;;;5052396;28;20223;-85
2022/01/28 04:15:08;;;;;;;4.37;3.80;;;8.10;79.70;8.00;97381.00;;;;5052341;28;20614;-84
2022/01/28 04:17:38;;;;;;;3.90;3.47;;;8.10;79.60;8.00;97392.00;;;;5052141;28;20241;-85
2022/01/28 04:20:15;;;;;;;4.80;4.30;;;8.10;79.80;8.00;97386.00;;;;5036032;28;20305;-85
2022/01/28 04:22:43;;;;;;;4.67;4.17;;;8.10;79.40;8.00;97391.00;;;;5032619;28;20921;-86
2022/01/28 04:25:11;;;;;;;4.70;4.30;;;8.10;79.60;8.00;97405.00;;;;5031875;28;20241;-85
2022/01/28 04:27:47;;;;;;;4.67;4.23;;;8.10;79.70;8.10;97401.00;;;;5032265;28;20197;-85
2022/01/28 04:30:16;;;;;;;5.03;4.53;;;8.10;79.50;8.10;97410.00;;;;5032170;28;20181;-85
2022/01/28 04:32:46;;;;;;;3.87;3.57;;;8.10;79.50;8.10;97409.00;;;;5032148;28;20221;-86
2022/01/28 04:35:13;;;;;;;6.27;4.03;;;8.10;79.30;8.10;97397.00;;;;5032451;28;20209;-86
2022/01/28 04:37:49;;;;;;;4.53;4.00;;;8.20;79.40;8.10;97403.00;;;;5051681;28;20196;-86
2022/01/28 04:40:18;;;;;;;4.10;3.70;;;8.20;79.50;8.10;97396.00;;;;5050996;28;20208;-86
2022/01/28 04:43:03;;;;;;;4.73;4.20;;;8.20;79.40;8.10;97405.00;;;;5032227;28;20592;-86
2022/01/28 04:45:43;;;;;;;4.40;4.00;;;8.20;79.00;8.10;97402.00;;;;5031072;28;20256;-86
2022/01/28 04:48:19;;;;;;;4.20;3.40;;;8.20;78.80;8.10;97412.00;;;;5031962;28;20546;-86
2022/01/28 04:51:00;;;;;;;4.13;3.73;;;8.20;79.40;8.10;97416.00;;;;5031770;28;20193;-86
2022/01/28 04:53:48;;;;;;;3.70;3.37;;;8.20;79.40;8.10;97413.00;;;;5031924;28;20276;-86
2022/01/28 04:56:32;;;;;;;5.30;3.53;;;8.20;79.40;8.10;97404.00;;;;5031082;28;20200;-85
2022/01/28 04:59:21;;;;;;;3.10;2.90;;;8.20;79.40;8.20;97414.00;;;;5032224;28;20201;-86
2022/01/28 05:02:23;;;;;;;3.33;3.00;;;8.20;79.20;8.20;97416.00;;;;5041475;28;20591;-85
2022/01/28 05:05:30;;;;;;;4.07;2.80;;;8.20;79.10;8.20;97412.00;;;;5025419;28;20243;-85
2022/01/28 05:11:11;;;;;;;4.13;3.70;;;8.20;79.30;8.20;97444.00;;;;5035429;28;20205;-85
2022/01/28 05:14:08;;;;;;;3.53;3.23;;;8.30;79.30;8.20;97452.00;;;;5016096;28;20197;-85
2022/01/28 05:27:46;;;;;;;3.60;3.17;;;8.20;79.40;8.00;97443.00;;;;5016161;28;20228;-85
2022/01/28 05:30:14;;;;;;;4.30;3.27;;;8.20;79.40;8.00;97459.00;;;;5019660;28;20228;-84
2022/01/28 05:32:43;;;;;;;3.97;3.47;;;8.10;79.50;8.00;97466.00;;;;5035857;28;20221;-84
2022/01/28 05:35:10;;;;;;;4.73;3.87;;;8.10;79.70;8.00;97477.00;;;;5035813;28;20209;-86
2022/01/28 05:37:40;;;;;;;4.80;4.00;;;8.10;79.60;7.90;97488.00;;;;5035526;28;20692;-84
2022/01/28 05:40:09;;;;;;;4.53;3.97;;;8.00;79.40;7.90;97483.00;;;;5035535;28;20232;-83
2022/01/28 05:42:36;;;;;;;4.43;4.03;;;8.00;79.40;7.90;97496.00;;;;5035098;28;20229;-83
2022/01/28 05:45:04;;;;;;;5.23;4.20;;;8.00;79.60;7.80;97498.00;;;;5034733;28;20259;-82
2022/01/28 05:47:35;;;;;;;4.37;4.00;;;8.00;79.80;7.80;97496.00;;;;5035252;28;20250;-84
2022/01/28 05:50:05;;;;;;;4.80;4.00;;;8.00;79.90;7.80;97496.00;;;;5035479;28;20186;-84
2022/01/28 05:52:33;;;;;;;4.13;3.73;;;7.90;79.70;7.80;97505.00;;;;5015331;28;20706;-84
2022/01/28 05:55:00;;;;;;;4.27;3.83;;;7.90;79.80;7.80;97511.00;;;;5027199;28;20193;-85
2022/01/28 05:57:27;;;;;;;4.30;3.90;;;7.90;79.80;7.80;97513.00;;;;5035380;28;20205;-84
2022/01/28 05:59:59;;;;;;;4.73;4.10;;;7.90;80.00;7.80;97528.00;;;;5035098;28;20194;-86
2022/01/28 06:02:26;;;;;;;4.30;3.87;;;7.90;80.10;7.80;97521.00;;;;5030448;28;20260;-84
2022/01/28 06:04:54;;;;;;;6.03;4.60;;;7.90;80.20;7.80;97519.00;;;;5034122;28;20824;-85
2022/01/28 06:07:22;;;;;;;4.47;4.07;;;7.80;80.00;7.70;97521.00;;;;5054835;22;20272;-85
2022/01/28 06:09:49;;;;;;;4.23;3.83;;;7.80;80.20;7.70;97525.00;;;;5041570;28;20236;-86
2022/01/28 06:12:16;;;;;;;3.70;3.40;;;7.80;80.10;7.70;97533.00;;;;5047687;28;20193;-85
2022/01/28 06:14:43;;;;;;;4.00;3.60;;;7.80;80.00;7.70;97535.00;;;;5050681;28;20217;-85
2022/01/28 06:17:10;;;;;;;3.80;3.50;;;7.80;80.10;7.70;97533.00;;;;5033822;28;20200;-84
2022/01/28 06:19:37;;;;;;;3.40;3.10;;;7.80;80.10;7.60;97543.00;;;;5033458;28;20209;-86
2022/01/28 06:22:05;;;;;;;3.93;3.30;;;7.80;80.10;7.60;97537.00;;;;5035358;28;20574;-86
2022/01/28 06:24:33;;;;;;;4.93;3.40;;;7.70;80.20;7.60;97538.00;;;;5034618;28;20221;-86
2022/01/28 06:27:00;;;;;;;3.90;3.20;;;7.70;80.00;7.60;97535.00;;;;5029637;28;20213;-85
2022/01/28 06:29:27;;;;;;;5.43;3.60;;;7.70;80.00;7.60;97534.00;;;;5035022;28;20209;-85
2022/01/28 06:31:54;;;;;;;4.47;3.40;;;7.70;80.20;7.60;97536.00;;;;5034570;28;20205;-86
2022/01/28 06:34:21;;;;;;;3.57;3.00;;;7.70;80.10;7.60;97547.00;;;;5034703;28;20224;-86
2022/01/28 06:36:49;;;;;;;3.67;3.37;;;7.70;79.90;7.60;97540.00;;;;5033934;28;20197;-86
2022/01/28 06:39:16;;;;;;;4.70;3.80;;;7.70;80.00;7.60;97550.00;;;;5034204;28;20271;-86
2022/01/28 06:41:45;;;;;;;5.20;3.40;;;7.70;79.90;7.60;97550.00;;;;5030651;28;20651;-86
2022/01/28 06:44:12;;;;;;;4.03;3.27;;;7.60;79.90;7.60;97546.00;;;;5029070;28;20303;-86
2022/01/28 06:46:39;;;;;;;4.17;3.77;;;7.60;79.80;7.60;97550.00;;;;5034269;28;20221;-86
2022/01/28 06:49:06;;;;;;;3.50;3.20;;;7.60;79.70;7.60;97553.00;;;;5041637;28;20193;-86
2022/01/28 06:51:34;;;;;;;3.50;3.20;;;7.60;79.80;7.60;97556.00;;;;5035420;28;20677;-86
2022/01/28 06:54:02;;;;;;;3.23;2.93;;;7.60;79.90;7.70;97562.00;;;;5032091;28;20229;-86
2022/01/28 06:56:29;;;;;;;3.37;3.07;;;7.60;79.80;7.70;97563.00;;;;5035082;28;20197;-86
2022/01/28 06:58:57;;;;;;;4.43;3.47;;;8.30;80.60;7.70;97562.00;;;;5033679;28;20578;-86
2022/01/28 07:01:24;;;;;;;4.07;2.80;;;7.70;80.10;7.80;97564.00;;;;5041032;28;20200;-86
2022/01/28 07:03:51;;;;;;;4.33;3.37;;;7.70;80.20;7.80;97566.00;;;;5032708;28;20217;-86
2022/01/28 07:06:21;;;;;;;5.10;3.40;;;7.70;80.20;7.80;97557.00;;;;5032697;28;20229;-87
2022/01/28 07:08:48;;;;;;;3.63;3.20;;;7.70;80.10;7.90;97559.00;;;;5033446;28;20212;-86
2022/01/28 07:11:17;;;;;;;3.53;3.23;;;7.80;80.00;7.90;97562.00;;;;5033489;28;20266;-86
2022/01/28 07:13:44;;;;;;;4.27;3.87;;;7.80;80.00;7.90;97564.00;;;;5033795;28;20249;-86
2022/01/28 07:16:12;;;;;;;3.87;3.33;;;7.80;79.70;7.90;97572.00;;;;5032935;28;20206;-86
2022/01/28 07:19:13;;;;;;;4.30;3.27;;;7.80;79.80;7.90;97575.00;;;;5026512;28;20647;-86
2022/01/28 07:21:40;;;;;;;4.00;3.60;;;7.80;79.80;7.90;97569.00;;;;5032060;28;20189;-87
2022/01/28 07:24:07;;;;;;;5.03;4.20;;;7.90;79.80;7.90;97567.00;;;;5032510;28;20690;-86
2022/01/28 07:26:34;;;;;;;3.97;3.63;;;7.90;79.70;7.90;97552.00;;;;5032957;28;20227;-86
2022/01/28 07:29:01;;;;;;;3.83;3.43;;;7.90;79.50;7.90;97561.00;;;;5032981;28;20190;-87
2022/01/28 07:31:33;;;;;;;5.17;3.83;;;7.90;79.40;7.90;97562.00;;;;5025984;28;20288;-86
2022/01/28 07:41:11;;;;;;;3.83;3.47;;;7.80;78.50;7.70;97565.00;;;;4966219;28;20584;-86
2022/01/28 07:43:39;;;;;;;3.67;3.30;;;7.80;79.00;7.70;97573.00;;;;5031807;28;20212;-86
2022/01/28 07:46:07;;;;;;;6.67;5.03;;;7.80;79.40;7.70;97573.00;;;;5032620;28;20732;-86
2022/01/28 07:48:35;;;;;;;4.17;3.77;;;7.80;79.50;7.80;97568.00;;;;5032036;28;20662;-87
2022/01/28 07:51:02;;;;;;;4.10;3.80;;;7.80;79.60;7.80;97572.00;;;;5034398;28;20200;-86
2022/01/28 07:53:29;;;;;;;3.53;2.73;;;7.80;79.70;7.80;97581.00;;;;5029133;28;20225;-87
2022/01/28 07:55:56;;;;;;;2.87;2.67;;;7.80;79.30;7.80;97572.00;;;;5032342;28;20201;-87
2022/01/28 07:58:23;;;;;;;2.67;2.47;;;7.80;79.50;7.80;97580.00;;;;5032230;28;20204;-87
2022/01/28 08:00:51;;;;;;;3.40;3.00;;;7.80;79.60;7.80;97584.00;;;;5032777;28;20197;-86
2022/01/28 08:03:18;;;;;;;4.03;3.00;;;7.80;79.70;7.80;97591.00;;;;5032887;28;20216;-86
2022/01/28 08:05:46;;;;;;;3.10;2.90;;;7.80;79.50;7.80;97579.00;;;;5032398;28;20221;-86
2022/01/28 08:08:18;;;;;;;4.17;3.17;;;7.90;79.70;7.80;97592.00;;;;5032403;28;20193;-86
2022/01/28 08:10:46;;;;;;;3.37;3.03;;;7.90;79.80;7.90;97598.00;;;;5032516;28;20205;-86
2022/01/28 08:13:14;;;;;;;3.10;2.83;;;7.90;79.80;7.90;97595.00;;;;5032163;28;20846;-86
2022/01/28 08:15:41;;;;;;;3.47;2.87;;;7.90;79.90;7.90;97609.00;;;;5031040;28;20646;-86
2022/01/28 08:18:09;;;;;;;3.20;2.90;;;7.90;79.70;7.90;97612.00;;;;5032095;28;20243;-86
2022/01/28 08:20:37;;;;;;;3.53;2.80;;;7.90;79.80;7.90;97607.00;;;;5031751;28;20201;-86
2022/01/28 08:23:06;;;;;;;2.77;2.57;;;8.00;79.70;8.00;97625.00;;;;5032283;28;20222;-87
2022/01/28 08:25:36;;;;;;;3.10;2.80;;;8.00;79.40;8.00;97627.00;;;;5027051;28;20263;-86
2022/01/28 08:28:05;;;;;;;5.20;3.17;;;8.00;79.60;8.00;97624.00;;;;5032521;28;20204;-86
2022/01/28 08:30:37;;;;;;;3.50;3.00;;;8.00;79.80;8.10;97619.00;;;;5032231;28;20737;-87
2022/01/28 08:33:05;;;;;;;4.23;3.10;;;8.10;79.90;8.10;97615.00;;;;5032307;28;20225;-87
2022/01/28 08:35:36;;;;;;;3.30;3.00;;;8.10;79.70;8.10;97634.00;;;;5039448;28;20220;-87
2022/01/28 08:38:13;;;;;;;3.73;3.00;;;8.20;80.30;8.20;97643.00;;;;5031425;28;20294;-87
2022/01/28 08:40:40;;;;;;;4.23;3.10;;;8.20;79.30;8.20;97635.00;;;;5031921;28;20197;-86
2022/01/28 08:43:10;;;;;;;3.10;2.90;;;8.20;79.30;8.20;97633.00;;;;5030794;28;20217;-86
2022/01/28 08:45:37;;;;;;;3.97;2.97;;;8.20;79.70;8.40;97641.00;;;;5031527;28;20197;-86
2022/01/28 08:48:05;;;;;;;3.33;2.87;;;8.20;79.70;8.40;97644.00;;;;5031760;28;20196;-87
2022/01/28 08:50:32;;;;;;;4.47;3.13;;;8.30;79.70;8.50;97640.00;;;;5031758;28;20663;-86
2022/01/28 08:52:59;;;;;;;3.20;2.90;;;8.40;79.60;8.50;97637.00;;;;5031734;28;20221;-86
2022/01/28 08:55:27;;;;;;;4.60;3.30;;;8.40;79.40;8.60;97638.00;;;;5032319;28;20201;-86
2022/01/28 08:57:57;;;;;;;4.13;3.30;;;8.40;78.60;8.60;97647.00;;;;5031637;28;20197;-86
2022/01/28 09:00:24;;;;;;;3.93;3.10;;;8.50;78.00;8.50;97651.00;;;;5031704;28;20221;-86
2022/01/28 09:02:52;;;;;;;2.90;2.70;;;8.50;78.60;8.60;97655.00;;;;5034224;28;20667;-86
2022/01/28 09:05:20;;;;;;;3.67;2.77;;;8.50;78.60;8.60;97649.00;;;;5029201;28;20288;-86
2022/01/28 09:07:48;;;;;;;4.87;3.03;;;8.40;77.90;8.60;97647.00;;;;5045884;28;20226;-86
2022/01/28 09:10:19;;;;;;;3.67;2.93;;;8.60;78.40;8.60;97662.00;;;;5047986;28;20198;-85
2022/01/28 09:13:09;;;;;;;3.53;2.90;;;8.60;78.30;8.70;97648.00;;;;5039418;28;20227;-86
2022/01/28 09:15:40;;;;;;;2.73;2.53;;;8.60;78.50;8.80;97667.00;;;;5026146;28;20219;-86
2022/01/28 09:18:09;;;;;;;2.73;2.50;;;8.70;78.90;8.90;97660.00;;;;5032355;28;20197;-86
2022/01/28 09:20:37;;;;;;;4.23;2.90;;;8.70;78.60;8.90;97670.00;;;;5029582;28;20268;-86
2022/01/28 09:23:05;;;;;;;3.60;3.00;;;8.80;78.80;9.00;97681.00;;;;5027489;28;20224;-86
2022/01/28 09:25:34;;;;;;;3.50;3.20;;;8.80;78.20;9.00;97674.00;;;;5030527;28;20202;-87
2022/01/28 09:28:04;;;;;;;3.13;2.80;;;9.20;78.60;9.00;97674.00;;;;5031686;28;20221;-86
2022/01/28 09:30:31;;;;;;;4.23;2.83;;;8.90;78.30;9.00;97689.00;;;;5029776;28;20207;-85
2022/01/28 09:32:59;;;;;;;3.57;2.83;;;9.00;77.60;9.00;97683.00;;;;5030723;28;20218;-86
2022/01/28 09:35:26;;;;;;;3.03;2.77;;;9.00;77.60;9.00;97677.00;;;;5030291;28;20212;-86
2022/01/28 09:37:54;;;;;;;4.77;2.53;;;9.00;77.60;9.00;97682.00;;;;5031174;28;20601;-86
2022/01/28 09:40:22;;;;;;;6.00;2.87;;;9.00;77.30;9.00;97688.00;;;;5030521;28;20201;-86
2022/01/28 09:42:52;;;;;;;2.80;2.60;;;9.00;77.50;9.10;97688.00;;;;5031351;28;20354;-86
2022/01/28 09:45:24;;;;;;;3.53;2.90;;;9.00;77.60;9.20;97689.00;;;;5030050;28;20186;-86
2022/01/28 09:47:55;;;;;;;4.17;2.83;;;9.00;77.60;9.30;97701.00;;;;5026221;28;20217;-86
2022/01/28 09:50:23;;;;;;;4.50;2.70;;;9.10;77.60;9.30;97688.00;;;;5029734;28;20209;-87
2022/01/28 09:52:51;;;;;;;3.67;2.70;;;9.10;77.60;9.30;97701.00;;;;5031103;28;20196;-86
2022/01/28 09:55:21;;;;;;;4.13;3.00;;;9.20;77.00;9.30;97695.00;;;;5032806;28;20204;-86
2022/01/28 09:57:53;;;;;;;4.33;3.00;;;9.20;76.50;9.30;97695.00;;;;5036805;28;20205;-86
2022/01/28 10:00:25;;;;;;;4.53;3.43;;;9.30;76.90;9.40;97687.00;;;;5035949;28;20193;-86
2022/01/28 10:02:56;;;;;;;5.00;3.70;;;9.20;76.90;9.30;97683.00;;;;5034045;28;20215;-86
2022/01/28 10:05:27;;;;;;;6.73;4.57;;;9.30;76.90;9.40;97694.00;;;;5034454;28;20194;-86
2022/01/28 10:08:15;;;;;;;6.60;4.63;;;9.30;77.00;9.40;97698.00;;;;5033958;28;20213;-86
2022/01/28 10:10:52;;;;;;;3.30;2.90;;;9.30;76.70;9.40;97700.00;;;;5032077;28;20205;-86
2022/01/28 10:13:25;;;;;;;3.70;3.33;;;9.30;77.20;9.50;97709.00;;;;5034329;28;20221;-86
2022/01/28 10:16:01;;;;;;;3.00;2.67;;;9.30;77.70;9.60;97717.00;;;;5033302;28;20194;-86
2022/01/28 10:18:53;;;;;;;4.40;2.73;;;9.30;77.40;9.50;97718.00;;;;5033262;28;20205;-86
2022/01/28 10:24:15;;;;;;;3.63;2.53;;;9.40;78.10;9.60;97717.00;;;;5025389;23;20217;-86
2022/01/28 10:26:48;;;;;;;3.07;2.77;;;9.40;77.40;9.60;97718.00;;;;5033020;28;20292;-86
2022/01/28 10:29:19;;;;;;;3.40;2.33;;;9.40;77.80;9.60;97713.00;;;;5031246;28;20235;-85
2022/01/28 10:31:54;;;;;;;3.23;2.60;;;9.40;77.90;9.70;97733.00;;;;5025745;28;20227;-85
2022/01/28 10:34:33;;;;;;;4.90;2.60;;;9.40;77.60;9.60;97727.00;;;;5022553;28;20285;-85
2022/01/28 10:37:11;;;;;;;3.33;2.43;;;9.40;76.70;9.50;97730.00;;;;5016943;28;20288;-85
2022/01/28 10:39:49;;;;;;;3.43;2.40;;;9.40;76.70;9.40;97714.00;;;;5021816;28;20206;-85
2022/01/28 10:42:20;;;;;;;2.57;2.33;;;9.40;76.50;9.40;97709.00;;;;5010677;28;20272;-85
2022/01/28 10:45:01;;;;;;;4.40;3.00;;;9.30;77.00;9.40;97721.00;;;;5020585;28;20200;-86
2022/01/28 10:47:36;;;;;;;4.13;3.20;;;9.30;77.00;9.30;97723.00;;;;5009771;28;20703;-85
2022/01/28 10:50:19;;;;;;;3.50;2.90;;;9.20;77.20;9.30;97726.00;;;;5006274;28;20225;-84
2022/01/28 10:52:49;;;;;;;4.70;2.70;;;9.30;77.20;9.30;97721.00;;;;4996322;28;20312;-84
2022/01/28 10:55:20;;;;;;;2.50;2.17;;;9.20;77.60;9.30;97725.00;;;;5003836;28;20194;-85
2022/01/28 10:57:59;;;;;;;3.30;2.40;;;9.20;77.30;9.30;97722.00;;;;5013159;28;20244;-84
2022/01/28 11:00:32;;;;;;;3.50;2.53;;;9.20;76.80;9.20;97727.00;;;;4993631;28;20202;-86
2022/01/28 11:03:04;;;;;;;3.80;2.50;;;9.20;77.10;9.20;97727.00;;;;5012489;28;20226;-85
2022/01/28 11:05:38;;;;;;;4.00;2.57;;;9.20;77.20;9.20;97727.00;;;;5011760;28;20765;-85
2022/01/28 11:08:12;;;;;;;4.50;2.90;;;9.10;77.30;9.20;97720.00;;;;5008083;28;20301;-86
2022/01/28 11:10:45;;;;;;;2.47;2.27;;;9.10;77.50;9.10;97720.00;;;;5020498;28;20857;-86
2022/01/28 11:13:19;;;;;;;2.60;2.40;;;9.00;77.10;9.10;97731.00;;;;5006863;28;20218;-86
2022/01/28 11:15:46;;;;;;;2.97;2.37;;;9.00;77.20;9.00;97736.00;;;;5005732;28;20198;-86
2022/01/28 11:18:20;;;;;;;2.53;2.33;;;9.00;78.00;9.00;97738.00;;;;5002859;28;20297;-86
2022/01/28 11:20:53;;;;;;;3.33;2.30;;;9.00;77.10;8.90;97732.00;;;;5013964;28;20822;-86
2022/01/28 11:23:32;;;;;;;2.47;2.07;;;8.90;76.40;8.80;97729.00;;;;5017974;28;20684;-85
2022/01/28 11:26:17;;;;;;;2.60;2.10;;;8.90;76.20;8.60;97726.00;;;;5007133;28;20206;-86
2022/01/28 11:28:48;;;;;;;4.30;1.97;;;8.80;76.00;8.50;97734.00;;;;5001118;28;20233;-85
2022/01/28 11:31:33;;;;;;;1.70;1.60;;;8.70;76.40;8.40;97727.00;;;;5011297;28;20592;-86
2022/01/28 11:34:02;;;;;;;1.93;1.70;;;8.50;76.50;8.30;97728.00;;;;4998288;28;20394;-85
2022/01/28 11:36:35;;;;;;;2.63;1.63;;;8.40;77.40;8.20;97730.00;;;;5005429;28;20216;-86
2022/01/28 11:39:09;;;;;;;1.80;1.60;;;8.40;76.70;8.10;97707.00;;;;5007456;28;20190;-84
2022/01/28 11:41:37;;;;;;;2.23;1.63;;;8.30;77.00;8.20;97718.00;;;;5012188;28;20218;-85
2022/01/28 11:44:04;;;;;;;2.50;2.00;;;8.20;77.40;8.20;97711.00;;;;5010814;28;20281;-85
2022/01/28 11:46:38;;;;;;;2.37;2.13;;;8.10;77.50;8.20;97708.00;;;;5012392;28;20200;-85
2022/01/28 11:49:25;;;;;;;3.50;2.13;;;8.10;77.90;8.20;97721.00;;;;5012362;28;20201;-85
2022/01/28 11:51:52;;;;;;;3.53;2.17;;;8.10;78.20;8.20;97734.00;;;;5013019;28;20700;-86
2022/01/28 11:54:34;;;;;;;2.37;2.17;;;8.10;78.40;8.10;97746.00;;;;5012934;28;20198;-85
2022/01/28 11:57:16;;;;;;;4.20;2.70;;;8.00;78.40;8.10;97738.00;;;;5012674;28;20654;-86
2022/01/28 11:59:45;;;;;;;6.27;2.33;;;8.00;78.20;8.00;97750.00;;;;5012528;28;20202;-86
2022/01/28 12:02:21;;;;;;;1.97;1.37;;;8.00;78.10;7.90;97747.00;;;;5012753;28;20229;-85
2022/01/28 12:04:50;;;;;;;3.27;1.40;;;7.90;77.60;7.80;97735.00;;;;5012649;28;20650;-85
2022/01/28 12:07:22;;;;;;;2.80;1.20;;;7.90;77.80;7.70;97728.00;;;;5012679;28;20649;-85
2022/01/28 12:09:52;;;;;;;2.30;1.00;;;7.80;77.50;7.70;97733.00;;;;5033352;22;20225;-85
2022/01/28 12:12:56;;;;;;;1.37;0.90;;;7.80;77.90;7.70;97728.00;;;;5038016;28;20296;-85
2022/01/28 12:15:24;;;;;;;1.10;1.00;;;7.70;77.90;7.70;97726.00;;;;5031747;28;20679;-84
2022/01/28 12:18:03;;;;;;;2.60;1.00;;;7.70;78.10;7.70;97734.00;;;;5032055;28;20247;-85
2022/01/28 12:20:45;;;;;;;2.00;1.03;;;7.70;78.30;7.70;97730.00;;;;5031731;28;20292;-84
2022/01/28 12:23:32;;;;;;;3.63;1.10;;;7.70;78.10;7.60;97735.00;;;;5032096;28;20203;-85
2022/01/28 12:26:01;;;;;;;2.07;0.93;;;7.70;78.10;7.60;97727.00;;;;5033634;28;20204;-84
2022/01/28 12:28:49;;;;;;;1.03;1.00;;;7.60;78.40;7.70;97736.00;;;;5044563;28;20217;-84
2022/01/28 12:31:25;;;;;;;2.47;1.30;;;7.60;78.50;7.70;97735.00;;;;5054734;28;20213;-84